sensor_id;sensor_type;location;lat;lon;timestamp;P1;durP1;ratioP1;P2;durP2;ratioP2
43248;SDS011;29216;51.248;6.808;2022-12-07T00:00:26;16.55;;;11.77;;
43248;SDS011;29216;51.248;6.808;2022-12-07T00:02:52;19.90;;;13.43;;
43248;SDS011;29216;51.248;6.808;2022-12-07T00:05:17;20.00;;;13.02;;
43248;SDS011;29216;51.248;6.808;2022-12-07T00:07:43;23.20;;;13.15;;
43248;SDS011;29216;51.248;6.808;2022-12-07T00:10:08;17.23;;;12.30;;
43248;SDS011;29216;51.248;6.808;2022-12-07T00:12:34;18.45;;;13.52;;
43248;SDS011;29216;51.248;6.808;2022-12-07T00:15:00;21.80;;;12.80;;
43248;SDS011;29216;51.248;6.808;2022-12-07T00:17:25;30.20;;;13.98;;
43248;SDS011;29216;51.248;6.808;2022-12-07T00:19:51;21.98;;;13.60;;
43248;SDS011;29216;51.248;6.808;2022-12-07T00:22:17;18.02;;;13.05;;
43248;SDS011;29216;51.248;6.808;2022-12-07T00:24:42;19.73;;;12.95;;
43248;SDS011;29216;51.248;6.808;2022-12-07T00:27:08;18.33;;;13.80;;
43248;SDS011;29216;51.248;6.808;2022-12-07T00:29:34;22.27;;;13.88;;
43248;SDS011;29216;51.248;6.808;2022-12-07T00:32:01;20.67;;;13.90;;
43248;SDS011;29216;51.248;6.808;2022-12-07T00:34:28;19.92;;;13.18;;
43248;SDS011;29216;51.248;6.808;2022-12-07T00:36:53;20.08;;;13.80;;
43248;SDS011;29216;51.248;6.808;2022-12-07T00:39:19;18.70;;;13.52;;
43248;SDS011;29216;51.248;6.808;2022-12-07T00:41:44;18.58;;;13.18;;
43248;SDS011;29216;51.248;6.808;2022-12-07T00:44:10;17.38;;;12.93;;
43248;SDS011;29216;51.248;6.808;2022-12-07T00:46:36;16.95;;;12.48;;
43248;SDS011;29216;51.248;6.808;2022-12-07T00:49:02;19.30;;;13.50;;
43248;SDS011;29216;51.248;6.808;2022-12-07T00:51:28;18.88;;;12.88;;
43248;SDS011;29216;51.248;6.808;2022-12-07T00:53:53;17.50;;;13.63;;
43248;SDS011;29216;51.248;6.808;2022-12-07T00:56:24;23.08;;;13.88;;
43248;SDS011;29216;51.248;6.808;2022-12-07T00:58:52;19.65;;;13.30;;
43248;SDS011;29216;51.248;6.808;2022-12-07T01:01:17;20.00;;;13.25;;
43248;SDS011;29216;51.248;6.808;2022-12-07T01:03:43;18.35;;;12.98;;
43248;SDS011;29216;51.248;6.808;2022-12-07T01:06:09;20.02;;;13.52;;
43248;SDS011;29216;51.248;6.808;2022-12-07T01:08:38;21.80;;;13.38;;
43248;SDS011;29216;51.248;6.808;2022-12-07T01:11:05;17.73;;;12.90;;
43248;SDS011;29216;51.248;6.808;2022-12-07T01:13:33;21.60;;;14.40;;
43248;SDS011;29216;51.248;6.808;2022-12-07T01:16:00;20.77;;;14.27;;
43248;SDS011;29216;51.248;6.808;2022-12-07T01:18:28;22.45;;;14.98;;
43248;SDS011;29216;51.248;6.808;2022-12-07T01:21:05;20.38;;;13.50;;
43248;SDS011;29216;51.248;6.808;2022-12-07T01:23:33;19.38;;;14.18;;
43248;SDS011;29216;51.248;6.808;2022-12-07T01:26:04;17.88;;;13.57;;
43248;SDS011;29216;51.248;6.808;2022-12-07T01:28:31;18.77;;;13.52;;
43248;SDS011;29216;51.248;6.808;2022-12-07T01:31:02;20.33;;;13.88;;
43248;SDS011;29216;51.248;6.808;2022-12-07T01:33:33;20.05;;;14.38;;
43248;SDS011;29216;51.248;6.808;2022-12-07T01:36:08;19.63;;;13.55;;
43248;SDS011;29216;51.248;6.808;2022-12-07T01:38:47;20.17;;;13.38;;
43248;SDS011;29216;51.248;6.808;2022-12-07T01:41:16;20.45;;;13.98;;
43248;SDS011;29216;51.248;6.808;2022-12-07T01:46:40;18.17;;;14.00;;
43248;SDS011;29216;51.248;6.808;2022-12-07T01:49:10;20.67;;;13.13;;
43248;SDS011;29216;51.248;6.808;2022-12-07T01:51:41;19.83;;;13.70;;
43248;SDS011;29216;51.248;6.808;2022-12-07T01:54:08;23.40;;;14.60;;
43248;SDS011;29216;51.248;6.808;2022-12-07T01:56:36;18.73;;;14.20;;
43248;SDS011;29216;51.248;6.808;2022-12-07T01:59:03;19.30;;;13.43;;
43248;SDS011;29216;51.248;6.808;2022-12-07T02:01:29;21.00;;;14.40;;
43248;SDS011;29216;51.248;6.808;2022-12-07T02:03:55;18.42;;;14.05;;
43248;SDS011;29216;51.248;6.808;2022-12-07T02:06:23;22.85;;;14.57;;
43248;SDS011;29216;51.248;6.808;2022-12-07T02:08:51;19.75;;;15.38;;
43248;SDS011;29216;51.248;6.808;2022-12-07T02:11:17;20.75;;;15.00;;
43248;SDS011;29216;51.248;6.808;2022-12-07T02:13:43;21.98;;;15.23;;
43248;SDS011;29216;51.248;6.808;2022-12-07T02:21:24;20.20;;;14.18;;
43248;SDS011;29216;51.248;6.808;2022-12-07T02:32:24;22.63;;;13.32;;
43248;SDS011;29216;51.248;6.808;2022-12-07T02:35:53;23.38;;;14.25;;
43248;SDS011;29216;51.248;6.808;2022-12-07T02:38:22;20.15;;;13.75;;
43248;SDS011;29216;51.248;6.808;2022-12-07T02:43:28;20.88;;;14.10;;
43248;SDS011;29216;51.248;6.808;2022-12-07T02:46:02;19.15;;;14.35;;
43248;SDS011;29216;51.248;6.808;2022-12-07T02:48:31;20.98;;;14.77;;
43248;SDS011;29216;51.248;6.808;2022-12-07T02:50:58;26.13;;;14.50;;
43248;SDS011;29216;51.248;6.808;2022-12-07T02:53:28;23.08;;;15.05;;
43248;SDS011;29216;51.248;6.808;2022-12-07T02:56:02;19.33;;;14.13;;
43248;SDS011;29216;51.248;6.808;2022-12-07T03:01:28;19.15;;;13.18;;
43248;SDS011;29216;51.248;6.808;2022-12-07T03:06:40;21.90;;;14.63;;
43248;SDS011;29216;51.248;6.808;2022-12-07T03:11:50;18.00;;;13.60;;
43248;SDS011;29216;51.248;6.808;2022-12-07T03:14:29;18.17;;;13.57;;
43248;SDS011;29216;51.248;6.808;2022-12-07T03:17:31;20.70;;;14.02;;
43248;SDS011;29216;51.248;6.808;2022-12-07T03:19:52;19.85;;;13.90;;
43248;SDS011;29216;51.248;6.808;2022-12-07T03:22:23;20.30;;;13.32;;
43248;SDS011;29216;51.248;6.808;2022-12-07T03:24:53;18.85;;;13.45;;
43248;SDS011;29216;51.248;6.808;2022-12-07T03:27:28;17.98;;;13.30;;
43248;SDS011;29216;51.248;6.808;2022-12-07T03:30:08;24.83;;;13.27;;
43248;SDS011;29216;51.248;6.808;2022-12-07T03:35:20;19.75;;;12.93;;
43248;SDS011;29216;51.248;6.808;2022-12-07T03:40:37;18.77;;;12.05;;
43248;SDS011;29216;51.248;6.808;2022-12-07T03:43:08;16.63;;;12.25;;
43248;SDS011;29216;51.248;6.808;2022-12-07T03:45:42;18.13;;;12.77;;
43248;SDS011;29216;51.248;6.808;2022-12-07T03:51:02;17.92;;;13.13;;
43248;SDS011;29216;51.248;6.808;2022-12-07T03:56:13;18.15;;;13.90;;
43248;SDS011;29216;51.248;6.808;2022-12-07T03:58:40;21.75;;;13.77;;
43248;SDS011;29216;51.248;6.808;2022-12-07T04:01:07;17.38;;;13.05;;
43248;SDS011;29216;51.248;6.808;2022-12-07T04:03:32;18.63;;;13.80;;
43248;SDS011;29216;51.248;6.808;2022-12-07T04:05:58;20.23;;;13.02;;
43248;SDS011;29216;51.248;6.808;2022-12-07T04:08:24;18.90;;;12.05;;
43248;SDS011;29216;51.248;6.808;2022-12-07T04:10:50;19.55;;;12.93;;
43248;SDS011;29216;51.248;6.808;2022-12-07T04:13:16;17.98;;;12.50;;
43248;SDS011;29216;51.248;6.808;2022-12-07T04:15:41;19.08;;;12.95;;
43248;SDS011;29216;51.248;6.808;2022-12-07T04:18:07;17.83;;;12.20;;
43248;SDS011;29216;51.248;6.808;2022-12-07T04:20:33;19.92;;;12.23;;
43248;SDS011;29216;51.248;6.808;2022-12-07T04:22:59;18.17;;;12.98;;
43248;SDS011;29216;51.248;6.808;2022-12-07T04:25:24;16.58;;;12.15;;
43248;SDS011;29216;51.248;6.808;2022-12-07T04:27:50;17.02;;;12.55;;
43248;SDS011;29216;51.248;6.808;2022-12-07T04:30:16;17.35;;;12.13;;
43248;SDS011;29216;51.248;6.808;2022-12-07T04:32:42;16.98;;;11.95;;
43248;SDS011;29216;51.248;6.808;2022-12-07T04:35:08;17.17;;;12.00;;
43248;SDS011;29216;51.248;6.808;2022-12-07T04:37:34;14.25;;;11.43;;
43248;SDS011;29216;51.248;6.808;2022-12-07T04:39:59;12.38;;;10.40;;
43248;SDS011;29216;51.248;6.808;2022-12-07T04:42:25;14.85;;;10.60;;
43248;SDS011;29216;51.248;6.808;2022-12-07T04:44:51;16.75;;;11.13;;
43248;SDS011;29216;51.248;6.808;2022-12-07T04:47:17;17.60;;;11.90;;
43248;SDS011;29216;51.248;6.808;2022-12-07T04:49:42;14.00;;;10.48;;
43248;SDS011;29216;51.248;6.808;2022-12-07T04:52:08;13.63;;;10.63;;
43248;SDS011;29216;51.248;6.808;2022-12-07T04:54:34;17.55;;;10.50;;
43248;SDS011;29216;51.248;6.808;2022-12-07T04:57:00;13.60;;;9.90;;
43248;SDS011;29216;51.248;6.808;2022-12-07T04:59:25;11.50;;;9.43;;
43248;SDS011;29216;51.248;6.808;2022-12-07T05:01:51;15.50;;;10.57;;
43248;SDS011;29216;51.248;6.808;2022-12-07T05:04:17;16.90;;;10.52;;
43248;SDS011;29216;51.248;6.808;2022-12-07T05:06:43;16.13;;;11.50;;
43248;SDS011;29216;51.248;6.808;2022-12-07T05:09:09;17.67;;;10.85;;
43248;SDS011;29216;51.248;6.808;2022-12-07T05:11:35;16.33;;;10.75;;
43248;SDS011;29216;51.248;6.808;2022-12-07T05:14:04;14.60;;;9.27;;
43248;SDS011;29216;51.248;6.808;2022-12-07T05:16:41;17.25;;;10.63;;
43248;SDS011;29216;51.248;6.808;2022-12-07T05:19:08;17.05;;;10.25;;
43248;SDS011;29216;51.248;6.808;2022-12-07T05:21:35;15.30;;;10.40;;
43248;SDS011;29216;51.248;6.808;2022-12-07T05:24:01;17.98;;;10.57;;
43248;SDS011;29216;51.248;6.808;2022-12-07T05:26:27;14.23;;;9.85;;
43248;SDS011;29216;51.248;6.808;2022-12-07T05:28:54;15.45;;;9.68;;
43248;SDS011;29216;51.248;6.808;2022-12-07T05:31:20;13.30;;;9.35;;
43248;SDS011;29216;51.248;6.808;2022-12-07T05:33:47;16.42;;;9.40;;
43248;SDS011;29216;51.248;6.808;2022-12-07T05:36:13;12.60;;;9.68;;
43248;SDS011;29216;51.248;6.808;2022-12-07T05:38:38;19.05;;;9.55;;
43248;SDS011;29216;51.248;6.808;2022-12-07T05:41:05;13.40;;;8.98;;
43248;SDS011;29216;51.248;6.808;2022-12-07T05:43:32;17.38;;;9.13;;
43248;SDS011;29216;51.248;6.808;2022-12-07T05:45:58;13.05;;;9.38;;
43248;SDS011;29216;51.248;6.808;2022-12-07T05:48:24;17.90;;;8.90;;
43248;SDS011;29216;51.248;6.808;2022-12-07T05:50:50;15.93;;;8.75;;
43248;SDS011;29216;51.248;6.808;2022-12-07T05:53:16;12.63;;;8.35;;
43248;SDS011;29216;51.248;6.808;2022-12-07T05:55:43;16.58;;;8.93;;
43248;SDS011;29216;51.248;6.808;2022-12-07T05:58:09;12.00;;;9.48;;
43248;SDS011;29216;51.248;6.808;2022-12-07T06:00:56;13.85;;;8.98;;
43248;SDS011;29216;51.248;6.808;2022-12-07T06:03:22;12.25;;;8.10;;
43248;SDS011;29216;51.248;6.808;2022-12-07T06:05:48;12.57;;;8.77;;
43248;SDS011;29216;51.248;6.808;2022-12-07T06:08:14;17.40;;;8.95;;
43248;SDS011;29216;51.248;6.808;2022-12-07T06:10:40;12.32;;;8.88;;
43248;SDS011;29216;51.248;6.808;2022-12-07T06:13:06;16.17;;;8.43;;
43248;SDS011;29216;51.248;6.808;2022-12-07T06:15:35;14.50;;;9.10;;
43248;SDS011;29216;51.248;6.808;2022-12-07T06:18:01;15.15;;;9.18;;
43248;SDS011;29216;51.248;6.808;2022-12-07T06:20:27;13.80;;;9.40;;
43248;SDS011;29216;51.248;6.808;2022-12-07T06:22:52;14.20;;;7.78;;
43248;SDS011;29216;51.248;6.808;2022-12-07T06:25:18;11.38;;;8.73;;
43248;SDS011;29216;51.248;6.808;2022-12-07T06:27:43;10.57;;;8.70;;
43248;SDS011;29216;51.248;6.808;2022-12-07T06:30:09;11.18;;;8.23;;
43248;SDS011;29216;51.248;6.808;2022-12-07T06:32:36;11.57;;;8.75;;
43248;SDS011;29216;51.248;6.808;2022-12-07T06:35:02;11.38;;;7.80;;
43248;SDS011;29216;51.248;6.808;2022-12-07T06:37:28;16.17;;;8.32;;
43248;SDS011;29216;51.248;6.808;2022-12-07T06:39:54;14.05;;;8.32;;
43248;SDS011;29216;51.248;6.808;2022-12-07T06:42:19;15.63;;;7.47;;
43248;SDS011;29216;51.248;6.808;2022-12-07T06:44:45;12.90;;;7.60;;
43248;SDS011;29216;51.248;6.808;2022-12-07T06:47:11;15.45;;;7.88;;
43248;SDS011;29216;51.248;6.808;2022-12-07T06:49:36;15.35;;;7.63;;
43248;SDS011;29216;51.248;6.808;2022-12-07T06:52:02;11.20;;;7.72;;
43248;SDS011;29216;51.248;6.808;2022-12-07T06:54:29;17.77;;;8.38;;
43248;SDS011;29216;51.248;6.808;2022-12-07T06:56:55;15.88;;;8.80;;
43248;SDS011;29216;51.248;6.808;2022-12-07T06:59:21;12.18;;;8.27;;
43248;SDS011;29216;51.248;6.808;2022-12-07T07:01:47;15.30;;;8.68;;
43248;SDS011;29216;51.248;6.808;2022-12-07T07:04:13;16.75;;;8.18;;
43248;SDS011;29216;51.248;6.808;2022-12-07T07:06:39;11.40;;;7.78;;
43248;SDS011;29216;51.248;6.808;2022-12-07T07:09:04;12.02;;;7.70;;
43248;SDS011;29216;51.248;6.808;2022-12-07T07:11:30;12.93;;;7.68;;
43248;SDS011;29216;51.248;6.808;2022-12-07T07:13:56;13.10;;;8.15;;
43248;SDS011;29216;51.248;6.808;2022-12-07T07:16:27;14.25;;;8.20;;
43248;SDS011;29216;51.248;6.808;2022-12-07T07:18:55;13.80;;;8.45;;
43248;SDS011;29216;51.248;6.808;2022-12-07T07:21:20;12.10;;;8.10;;
43248;SDS011;29216;51.248;6.808;2022-12-07T07:23:46;14.60;;;8.20;;
43248;SDS011;29216;51.248;6.808;2022-12-07T07:26:12;12.77;;;7.85;;
43248;SDS011;29216;51.248;6.808;2022-12-07T07:28:37;13.40;;;8.63;;
43248;SDS011;29216;51.248;6.808;2022-12-07T07:31:03;15.88;;;8.75;;
43248;SDS011;29216;51.248;6.808;2022-12-07T07:33:29;12.55;;;8.23;;
43248;SDS011;29216;51.248;6.808;2022-12-07T07:35:55;15.50;;;9.00;;
43248;SDS011;29216;51.248;6.808;2022-12-07T07:38:21;16.65;;;8.55;;
43248;SDS011;29216;51.248;6.808;2022-12-07T07:40:47;12.18;;;8.48;;
43248;SDS011;29216;51.248;6.808;2022-12-07T07:43:12;12.60;;;8.80;;
43248;SDS011;29216;51.248;6.808;2022-12-07T07:45:38;18.30;;;8.90;;
43248;SDS011;29216;51.248;6.808;2022-12-07T07:48:04;15.13;;;8.48;;
43248;SDS011;29216;51.248;6.808;2022-12-07T07:50:32;13.48;;;7.63;;
43248;SDS011;29216;51.248;6.808;2022-12-07T07:52:58;13.02;;;7.90;;
43248;SDS011;29216;51.248;6.808;2022-12-07T07:55:24;11.52;;;7.90;;
43248;SDS011;29216;51.248;6.808;2022-12-07T07:57:50;15.50;;;8.25;;
43248;SDS011;29216;51.248;6.808;2022-12-07T08:00:16;18.98;;;8.02;;
43248;SDS011;29216;51.248;6.808;2022-12-07T08:02:42;13.27;;;8.30;;
43248;SDS011;29216;51.248;6.808;2022-12-07T08:05:09;12.45;;;7.75;;
43248;SDS011;29216;51.248;6.808;2022-12-07T08:07:36;13.27;;;9.02;;
43248;SDS011;29216;51.248;6.808;2022-12-07T08:10:02;18.40;;;8.10;;
43248;SDS011;29216;51.248;6.808;2022-12-07T08:12:28;11.82;;;7.55;;
43248;SDS011;29216;51.248;6.808;2022-12-07T08:14:54;11.27;;;7.60;;
43248;SDS011;29216;51.248;6.808;2022-12-07T08:17:22;10.23;;;7.57;;
43248;SDS011;29216;51.248;6.808;2022-12-07T08:19:48;15.82;;;9.52;;
43248;SDS011;29216;51.248;6.808;2022-12-07T08:22:14;14.25;;;8.90;;
43248;SDS011;29216;51.248;6.808;2022-12-07T08:24:40;14.02;;;7.97;;
43248;SDS011;29216;51.248;6.808;2022-12-07T08:27:05;12.35;;;7.82;;
43248;SDS011;29216;51.248;6.808;2022-12-07T08:29:31;9.02;;;7.00;;
43248;SDS011;29216;51.248;6.808;2022-12-07T08:31:57;12.27;;;7.40;;
43248;SDS011;29216;51.248;6.808;2022-12-07T08:34:23;12.00;;;6.70;;
43248;SDS011;29216;51.248;6.808;2022-12-07T08:36:48;14.30;;;7.35;;
43248;SDS011;29216;51.248;6.808;2022-12-07T08:39:14;11.35;;;6.70;;
43248;SDS011;29216;51.248;6.808;2022-12-07T08:41:40;9.73;;;6.40;;
43248;SDS011;29216;51.248;6.808;2022-12-07T08:44:06;11.27;;;5.68;;
43248;SDS011;29216;51.248;6.808;2022-12-07T08:47:14;7.97;;;5.45;;
43248;SDS011;29216;51.248;6.808;2022-12-07T08:49:24;15.18;;;6.50;;
43248;SDS011;29216;51.248;6.808;2022-12-07T08:51:54;11.52;;;5.72;;
43248;SDS011;29216;51.248;6.808;2022-12-07T08:54:20;11.88;;;5.40;;
43248;SDS011;29216;51.248;6.808;2022-12-07T08:56:47;7.13;;;5.70;;
43248;SDS011;29216;51.248;6.808;2022-12-07T08:59:14;10.50;;;5.75;;
43248;SDS011;29216;51.248;6.808;2022-12-07T09:01:42;10.73;;;5.78;;
43248;SDS011;29216;51.248;6.808;2022-12-07T09:04:08;9.82;;;5.93;;
43248;SDS011;29216;51.248;6.808;2022-12-07T09:06:34;14.55;;;6.25;;
43248;SDS011;29216;51.248;6.808;2022-12-07T09:09:00;9.32;;;6.20;;
43248;SDS011;29216;51.248;6.808;2022-12-07T09:11:27;12.48;;;5.80;;
43248;SDS011;29216;51.248;6.808;2022-12-07T09:13:53;9.95;;;6.30;;
43248;SDS011;29216;51.248;6.808;2022-12-07T09:16:18;10.32;;;6.50;;
43248;SDS011;29216;51.248;6.808;2022-12-07T09:18:44;12.13;;;6.38;;
43248;SDS011;29216;51.248;6.808;2022-12-07T09:21:10;12.70;;;6.63;;
43248;SDS011;29216;51.248;6.808;2022-12-07T09:23:36;10.30;;;7.03;;
43248;SDS011;29216;51.248;6.808;2022-12-07T09:26:02;6.68;;;5.65;;
43248;SDS011;29216;51.248;6.808;2022-12-07T09:28:32;11.68;;;6.15;;
43248;SDS011;29216;51.248;6.808;2022-12-07T09:30:59;12.75;;;5.72;;
43248;SDS011;29216;51.248;6.808;2022-12-07T09:33:24;8.15;;;5.53;;
43248;SDS011;29216;51.248;6.808;2022-12-07T09:35:51;9.32;;;5.15;;
43248;SDS011;29216;51.248;6.808;2022-12-07T09:38:18;9.02;;;5.32;;
43248;SDS011;29216;51.248;6.808;2022-12-07T09:40:44;10.57;;;5.97;;
43248;SDS011;29216;51.248;6.808;2022-12-07T09:43:12;14.52;;;5.80;;
43248;SDS011;29216;51.248;6.808;2022-12-07T09:45:53;11.90;;;5.53;;
43248;SDS011;29216;51.248;6.808;2022-12-07T09:48:53;11.02;;;5.68;;
43248;SDS011;29216;51.248;6.808;2022-12-07T09:53:46;12.75;;;5.25;;
43248;SDS011;29216;51.248;6.808;2022-12-07T09:56:13;11.82;;;5.47;;
43248;SDS011;29216;51.248;6.808;2022-12-07T09:58:41;8.93;;;5.40;;
43248;SDS011;29216;51.248;6.808;2022-12-07T10:03:37;7.47;;;5.00;;
43248;SDS011;29216;51.248;6.808;2022-12-07T10:06:04;10.43;;;5.38;;
43248;SDS011;29216;51.248;6.808;2022-12-07T10:08:31;7.05;;;4.65;;
43248;SDS011;29216;51.248;6.808;2022-12-07T10:10:57;9.63;;;4.38;;
43248;SDS011;29216;51.248;6.808;2022-12-07T10:13:37;10.70;;;4.82;;
43248;SDS011;29216;51.248;6.808;2022-12-07T10:16:05;12.60;;;5.03;;
43248;SDS011;29216;51.248;6.808;2022-12-07T10:18:32;11.57;;;4.65;;
43248;SDS011;29216;51.248;6.808;2022-12-07T10:23:43;8.20;;;4.65;;
43248;SDS011;29216;51.248;6.808;2022-12-07T10:29:00;9.32;;;4.70;;
43248;SDS011;29216;51.248;6.808;2022-12-07T10:31:38;8.65;;;5.13;;
43248;SDS011;29216;51.248;6.808;2022-12-07T10:34:27;8.50;;;4.82;;
43248;SDS011;29216;51.248;6.808;2022-12-07T10:37:07;9.32;;;5.25;;
43248;SDS011;29216;51.248;6.808;2022-12-07T10:42:18;10.45;;;4.88;;
43248;SDS011;29216;51.248;6.808;2022-12-07T10:47:51;7.47;;;3.88;;
43248;SDS011;29216;51.248;6.808;2022-12-07T11:01:23;11.75;;;4.95;;
43248;SDS011;29216;51.248;6.808;2022-12-07T11:14:45;10.30;;;4.40;;
43248;SDS011;29216;51.248;6.808;2022-12-07T11:17:19;7.18;;;4.18;;
43248;SDS011;29216;51.248;6.808;2022-12-07T11:20:16;5.93;;;3.65;;
43248;SDS011;29216;51.248;6.808;2022-12-07T11:22:50;9.10;;;4.05;;
43248;SDS011;29216;51.248;6.808;2022-12-07T11:25:32;13.43;;;3.97;;
43248;SDS011;29216;51.248;6.808;2022-12-07T11:41:54;6.78;;;3.75;;
43248;SDS011;29216;51.248;6.808;2022-12-07T11:47:13;5.97;;;3.00;;
43248;SDS011;29216;51.248;6.808;2022-12-07T11:49:52;11.20;;;3.45;;
43248;SDS011;29216;51.248;6.808;2022-12-07T11:55:19;8.98;;;3.95;;
43248;SDS011;29216;51.248;6.808;2022-12-07T11:57:54;7.57;;;3.33;;
43248;SDS011;29216;51.248;6.808;2022-12-07T12:00:42;11.88;;;3.65;;
43248;SDS011;29216;51.248;6.808;2022-12-07T12:03:09;11.68;;;4.18;;
43248;SDS011;29216;51.248;6.808;2022-12-07T12:05:38;7.65;;;3.22;;
43248;SDS011;29216;51.248;6.808;2022-12-07T12:22:02;8.50;;;4.07;;
43248;SDS011;29216;51.248;6.808;2022-12-07T12:24:43;10.50;;;3.78;;
43248;SDS011;29216;51.248;6.808;2022-12-07T12:27:24;8.20;;;3.97;;
43248;SDS011;29216;51.248;6.808;2022-12-07T12:30:06;7.55;;;4.47;;
43248;SDS011;29216;51.248;6.808;2022-12-07T12:32:49;8.50;;;4.00;;
43248;SDS011;29216;51.248;6.808;2022-12-07T12:38:47;10.65;;;4.05;;
43248;SDS011;29216;51.248;6.808;2022-12-07T12:40:55;9.68;;;3.80;;
43248;SDS011;29216;51.248;6.808;2022-12-07T12:51:46;11.47;;;4.00;;
43248;SDS011;29216;51.248;6.808;2022-12-07T12:54:20;9.20;;;3.97;;
43248;SDS011;29216;51.248;6.808;2022-12-07T12:59:19;8.55;;;4.43;;
43248;SDS011;29216;51.248;6.808;2022-12-07T13:01:55;5.28;;;3.33;;
43248;SDS011;29216;51.248;6.808;2022-12-07T13:04:48;6.40;;;3.33;;
43248;SDS011;29216;51.248;6.808;2022-12-07T13:18:39;10.95;;;3.30;;
43248;SDS011;29216;51.248;6.808;2022-12-07T13:27:10;6.63;;;2.88;;
43248;SDS011;29216;51.248;6.808;2022-12-07T13:31:41;10.57;;;3.00;;
43248;SDS011;29216;51.248;6.808;2022-12-07T13:37:00;6.28;;;3.05;;
43248;SDS011;29216;51.248;6.808;2022-12-07T13:39:35;5.80;;;2.83;;
43248;SDS011;29216;51.248;6.808;2022-12-07T13:42:35;4.45;;;2.28;;
43248;SDS011;29216;51.248;6.808;2022-12-07T13:45:22;5.13;;;2.55;;
43248;SDS011;29216;51.248;6.808;2022-12-07T13:48:15;8.18;;;2.53;;
43248;SDS011;29216;51.248;6.808;2022-12-07T13:50:56;6.72;;;2.80;;
43248;SDS011;29216;51.248;6.808;2022-12-07T13:53:23;8.00;;;2.58;;
43248;SDS011;29216;51.248;6.808;2022-12-07T13:55:49;8.35;;;2.40;;
43248;SDS011;29216;51.248;6.808;2022-12-07T13:58:15;5.85;;;2.63;;
43248;SDS011;29216;51.248;6.808;2022-12-07T14:00:41;6.85;;;2.65;;
43248;SDS011;29216;51.248;6.808;2022-12-07T14:05:36;7.05;;;2.42;;
43248;SDS011;29216;51.248;6.808;2022-12-07T14:08:04;6.65;;;3.30;;
43248;SDS011;29216;51.248;6.808;2022-12-07T14:16:01;5.13;;;2.40;;
43248;SDS011;29216;51.248;6.808;2022-12-07T14:18:41;8.73;;;3.10;;
43248;SDS011;29216;51.248;6.808;2022-12-07T14:23:36;8.45;;;2.30;;
43248;SDS011;29216;51.248;6.808;2022-12-07T14:28:43;10.40;;;2.50;;
43248;SDS011;29216;51.248;6.808;2022-12-07T14:31:11;6.93;;;2.60;;
43248;SDS011;29216;51.248;6.808;2022-12-07T14:33:41;4.35;;;2.17;;
43248;SDS011;29216;51.248;6.808;2022-12-07T14:36:11;4.57;;;2.10;;
43248;SDS011;29216;51.248;6.808;2022-12-07T14:38:39;6.93;;;2.53;;
43248;SDS011;29216;51.248;6.808;2022-12-07T14:41:06;4.30;;;2.55;;
43248;SDS011;29216;51.248;6.808;2022-12-07T14:43:58;9.60;;;2.50;;
43248;SDS011;29216;51.248;6.808;2022-12-07T14:46:24;4.93;;;2.60;;
43248;SDS011;29216;51.248;6.808;2022-12-07T14:48:49;7.95;;;3.40;;
43248;SDS011;29216;51.248;6.808;2022-12-07T14:51:15;6.30;;;2.80;;
43248;SDS011;29216;51.248;6.808;2022-12-07T14:53:42;8.30;;;3.53;;
43248;SDS011;29216;51.248;6.808;2022-12-07T14:56:12;6.45;;;2.70;;
43248;SDS011;29216;51.248;6.808;2022-12-07T14:58:37;9.32;;;3.00;;
43248;SDS011;29216;51.248;6.808;2022-12-07T15:01:04;5.85;;;3.33;;
43248;SDS011;29216;51.248;6.808;2022-12-07T15:03:30;8.80;;;3.15;;
43248;SDS011;29216;51.248;6.808;2022-12-07T15:05:55;8.00;;;3.22;;
43248;SDS011;29216;51.248;6.808;2022-12-07T15:08:21;10.18;;;4.38;;
43248;SDS011;29216;51.248;6.808;2022-12-07T15:10:47;8.52;;;3.47;;
43248;SDS011;29216;51.248;6.808;2022-12-07T15:13:12;7.28;;;3.47;;
43248;SDS011;29216;51.248;6.808;2022-12-07T15:15:56;16.52;;;3.78;;
43248;SDS011;29216;51.248;6.808;2022-12-07T15:18:22;12.07;;;4.10;;
43248;SDS011;29216;51.248;6.808;2022-12-07T15:20:49;9.25;;;4.28;;
43248;SDS011;29216;51.248;6.808;2022-12-07T15:23:15;12.43;;;4.72;;
43248;SDS011;29216;51.248;6.808;2022-12-07T15:25:41;12.05;;;3.70;;
43248;SDS011;29216;51.248;6.808;2022-12-07T15:28:07;8.25;;;3.15;;
43248;SDS011;29216;51.248;6.808;2022-12-07T15:30:33;6.88;;;2.97;;
43248;SDS011;29216;51.248;6.808;2022-12-07T15:32:59;11.63;;;4.00;;
43248;SDS011;29216;51.248;6.808;2022-12-07T15:35:25;6.72;;;3.35;;
43248;SDS011;29216;51.248;6.808;2022-12-07T15:37:50;7.57;;;3.20;;
43248;SDS011;29216;51.248;6.808;2022-12-07T15:40:16;11.18;;;3.53;;
43248;SDS011;29216;51.248;6.808;2022-12-07T15:42:42;14.32;;;4.10;;
43248;SDS011;29216;51.248;6.808;2022-12-07T15:45:08;6.38;;;3.20;;
43248;SDS011;29216;51.248;6.808;2022-12-07T15:47:42;8.23;;;3.47;;
43248;SDS011;29216;51.248;6.808;2022-12-07T15:50:12;9.95;;;3.70;;
43248;SDS011;29216;51.248;6.808;2022-12-07T15:52:40;9.38;;;3.80;;
43248;SDS011;29216;51.248;6.808;2022-12-07T15:55:07;12.68;;;3.60;;
43248;SDS011;29216;51.248;6.808;2022-12-07T15:57:35;8.63;;;3.40;;
43248;SDS011;29216;51.248;6.808;2022-12-07T16:00:02;6.75;;;3.08;;
43248;SDS011;29216;51.248;6.808;2022-12-07T16:02:33;6.40;;;3.05;;
43248;SDS011;29216;51.248;6.808;2022-12-07T16:04:59;11.77;;;3.00;;
43248;SDS011;29216;51.248;6.808;2022-12-07T16:07:25;8.13;;;3.47;;
43248;SDS011;29216;51.248;6.808;2022-12-07T16:09:51;9.80;;;3.28;;
43248;SDS011;29216;51.248;6.808;2022-12-07T16:12:16;8.63;;;3.40;;
43248;SDS011;29216;51.248;6.808;2022-12-07T16:14:42;11.07;;;3.67;;
43248;SDS011;29216;51.248;6.808;2022-12-07T16:17:08;5.22;;;3.45;;
43248;SDS011;29216;51.248;6.808;2022-12-07T16:19:35;8.00;;;3.33;;
43248;SDS011;29216;51.248;6.808;2022-12-07T16:22:01;12.65;;;4.35;;
43248;SDS011;29216;51.248;6.808;2022-12-07T16:24:28;8.48;;;3.45;;
43248;SDS011;29216;51.248;6.808;2022-12-07T16:26:53;9.95;;;3.42;;
43248;SDS011;29216;51.248;6.808;2022-12-07T16:29:20;9.75;;;4.57;;
43248;SDS011;29216;51.248;6.808;2022-12-07T16:31:47;7.70;;;3.88;;
43248;SDS011;29216;51.248;6.808;2022-12-07T16:34:13;8.15;;;3.70;;
43248;SDS011;29216;51.248;6.808;2022-12-07T16:36:39;12.07;;;4.22;;
43248;SDS011;29216;51.248;6.808;2022-12-07T16:39:05;11.50;;;4.50;;
43248;SDS011;29216;51.248;6.808;2022-12-07T16:41:31;10.38;;;4.15;;
43248;SDS011;29216;51.248;6.808;2022-12-07T16:44:00;9.43;;;4.00;;
43248;SDS011;29216;51.248;6.808;2022-12-07T16:46:32;11.57;;;4.78;;
43248;SDS011;29216;51.248;6.808;2022-12-07T16:48:58;8.18;;;4.40;;
43248;SDS011;29216;51.248;6.808;2022-12-07T16:51:24;12.65;;;4.20;;
43248;SDS011;29216;51.248;6.808;2022-12-07T16:53:50;7.18;;;4.55;;
43248;SDS011;29216;51.248;6.808;2022-12-07T16:56:18;10.68;;;4.68;;
43248;SDS011;29216;51.248;6.808;2022-12-07T16:58:44;8.90;;;4.80;;
43248;SDS011;29216;51.248;6.808;2022-12-07T17:01:12;8.20;;;4.50;;
43248;SDS011;29216;51.248;6.808;2022-12-07T17:03:39;8.35;;;4.55;;
43248;SDS011;29216;51.248;6.808;2022-12-07T17:06:21;11.85;;;5.45;;
43248;SDS011;29216;51.248;6.808;2022-12-07T17:08:49;11.57;;;4.82;;
43248;SDS011;29216;51.248;6.808;2022-12-07T17:11:22;14.98;;;5.20;;
43248;SDS011;29216;51.248;6.808;2022-12-07T17:13:50;8.63;;;4.70;;
43248;SDS011;29216;51.248;6.808;2022-12-07T17:16:34;9.20;;;5.38;;
43248;SDS011;29216;51.248;6.808;2022-12-07T17:19:03;8.80;;;5.03;;
43248;SDS011;29216;51.248;6.808;2022-12-07T17:21:30;9.32;;;5.30;;